createdAt,value
2019-01-03T00:02:02.016Z,2.18
2019-01-03T00:07:32.650Z,2.09
2019-01-03T00:13:00.948Z,2.24
2019-01-03T00:18:25.055Z,2.07
2019-01-03T00:23:48.922Z,1.66
2019-01-03T00:28:57.139Z,1.70
2019-01-03T00:34:09.216Z,1.86
2019-01-03T00:39:16.935Z,1.95
2019-01-03T00:44:25.165Z,1.87
2019-01-03T00:49:43.090Z,1.94
2019-01-03T00:55:12.602Z,1.98
2019-01-03T01:00:37.449Z,2.21
2019-01-03T01:05:55.411Z,2.00
2019-01-03T01:11:07.447Z,1.99
2019-01-03T01:16:34.650Z,1.87
2019-01-03T01:21:42.870Z,1.97
2019-01-03T01:26:50.330Z,1.89
2019-01-03T01:32:22.428Z,1.88
2019-01-03T01:37:35.986Z,1.88
2019-01-03T01:42:43.924Z,2.13
2019-01-03T01:47:49.599Z,1.65
2019-01-03T01:53:07.827Z,1.59
2019-01-03T01:58:15.274Z,1.60
2019-01-03T02:03:27.330Z,1.58
2019-01-03T02:08:48.126Z,1.79
2019-01-03T02:14:03.017Z,1.58
2019-01-03T02:19:12.490Z,1.47
2019-01-03T02:24:20.978Z,1.60
2019-01-03T02:29:39.504Z,1.77
2019-01-03T02:34:47.172Z,1.82
2019-01-03T02:40:02.570Z,1.91
2019-01-03T02:45:09.774Z,1.75
2019-01-03T02:50:32.090Z,2.07
2019-01-03T02:55:46.450Z,2.07
2019-01-03T03:00:47.498Z,1.79
2019-01-03T03:05:57.189Z,1.75
2019-01-03T03:11:18.823Z,1.74
2019-01-03T03:16:45.970Z,1.80
2019-01-03T03:21:59.322Z,1.91
2019-01-03T03:27:17.551Z,1.76
2019-01-03T03:32:46.007Z,2.21
2019-01-03T03:38:01.382Z,2.08
2019-01-03T03:43:09.598Z,2.34
2019-01-03T03:48:24.493Z,2.20
2019-01-03T03:53:36.579Z,2.15
2019-01-03T03:58:45.578Z,2.21
2019-01-03T04:03:58.396Z,2.21
2019-01-03T04:09:13.800Z,2.12
2019-01-03T04:14:37.872Z,2.09
2019-01-03T04:19:47.159Z,2.17
2019-01-03T04:25:05.361Z,2.18
2019-01-03T04:30:13.593Z,2.25
2019-01-03T04:35:25.052Z,2.29
2019-01-03T04:40:30.558Z,2.18
2019-01-03T04:45:51.050Z,2.34
2019-01-03T04:51:04.143Z,2.22
2019-01-03T04:56:12.399Z,2.16
2019-01-03T05:02:14.869Z,2.34
2019-01-03T05:07:43.338Z,2.33
2019-01-03T05:12:55.896Z,2.22
2019-01-03T05:18:04.893Z,2.03
2019-01-03T05:23:32.571Z,1.81
2019-01-03T05:29:00.029Z,2.26
2019-01-03T05:34:32.448Z,2.25
2019-01-03T05:39:45.905Z,2.31
2019-01-03T05:44:58.233Z,2.17
2019-01-03T05:50:19.247Z,2.00
2019-01-03T05:55:28.519Z,2.00
2019-01-03T06:00:35.965Z,1.90
2019-01-03T06:05:43.693Z,1.93
2019-01-03T06:10:56.004Z,1.73
2019-01-03T06:16:13.447Z,1.92
2019-01-03T06:21:24.508Z,2.02
2019-01-03T06:26:38.878Z,2.07
2019-01-03T06:32:06.583Z,2.37
2019-01-03T06:37:19.402Z,2.25
2019-01-03T06:42:43.741Z,2.49
2019-01-03T06:47:51.213Z,3.16
2019-01-03T06:52:59.428Z,2.82
2019-01-03T06:58:08.430Z,2.77
2019-01-03T07:03:23.319Z,2.33
2019-01-03T07:08:50.471Z,2.60
2019-01-03T07:13:59.215Z,2.53
2019-01-03T07:19:14.094Z,2.64
2019-01-03T07:24:35.377Z,2.78
2019-01-03T07:29:50.585Z,2.86
2019-01-03T07:35:02.730Z,3.03
2019-01-03T07:40:42.050Z,3.81
2019-01-03T07:46:13.309Z,3.29
2019-01-03T07:51:21.807Z,3.24
2019-01-03T07:56:57.839Z,3.38
2019-01-03T08:02:17.179Z,3.57
2019-01-03T08:07:54.486Z,3.59
2019-01-03T08:13:05.877Z,3.64
2019-01-03T08:18:27.428Z,4.89
2019-01-03T08:23:35.642Z,4.34
2019-01-03T08:28:50.543Z,4.16
2019-01-03T08:34:08.727Z,4.23
2019-01-03T08:39:26.467Z,4.34
2019-01-03T08:44:41.849Z,5.01
2019-01-03T08:49:49.074Z,4.71
2019-01-03T08:55:01.117Z,5.36
2019-01-03T09:00:27.759Z,5.78
2019-01-03T09:05:52.105Z,6.07
2019-01-03T09:10:59.853Z,6.75
2019-01-03T09:16:27.031Z,7.27
2019-01-03T09:21:43.930Z,7.60
2019-01-03T09:26:51.922Z,7.71
2019-01-03T09:31:59.906Z,7.71
2019-01-03T09:37:07.354Z,7.53
2019-01-03T09:42:15.332Z,7.44
2019-01-03T09:47:07.641Z,8.62
2019-01-03T09:51:58.071Z,8.01
2019-01-03T09:56:49.576Z,8.45
2019-01-03T10:01:41.904Z,9.11
2019-01-03T10:06:32.741Z,9.21
2019-01-03T10:11:25.849Z,8.77
2019-01-03T10:16:19.973Z,7.84
2019-01-03T10:21:14.097Z,8.07
2019-01-03T10:26:06.242Z,7.28
2019-01-03T10:30:59.123Z,7.70
2019-01-03T10:35:52.512Z,6.84
2019-01-03T10:40:44.341Z,7.50
2019-01-03T10:45:34.904Z,7.58
2019-01-03T10:50:28.048Z,7.54
2019-01-03T10:55:19.094Z,6.44
2019-01-03T11:00:10.350Z,6.49
2019-01-03T11:05:02.268Z,6.58
2019-01-03T11:09:53.103Z,6.75
2019-01-03T11:14:43.930Z,7.34
2019-01-03T11:19:34.749Z,7.23
2019-01-03T11:24:27.628Z,7.24
2019-01-03T11:29:20.431Z,7.80
2019-01-03T11:34:11.526Z,7.62
2019-01-03T11:39:01.892Z,7.66
2019-01-03T11:43:55.557Z,7.02
2019-01-03T11:48:47.347Z,7.21
2019-01-03T11:53:40.187Z,7.00
2019-01-03T11:58:30.515Z,6.96
2019-01-03T12:03:20.799Z,7.44
2019-01-03T12:08:11.344Z,7.28
2019-01-03T12:13:01.147Z,7.99
2019-01-03T12:17:51.492Z,7.39
2019-01-03T12:22:42.284Z,6.99
2019-01-03T12:27:31.842Z,7.19
2019-01-03T12:32:21.617Z,6.96
2019-01-03T12:37:12.182Z,7.39
2019-01-03T12:42:02.244Z,7.06
2019-01-03T12:46:53.843Z,7.01
2019-01-03T12:51:47.279Z,6.67
2019-01-03T12:56:38.300Z,6.60
2019-01-03T13:01:30.433Z,6.38
2019-01-03T13:06:21.322Z,6.51
2019-01-03T13:11:16.107Z,6.18
2019-01-03T13:16:06.701Z,6.16
2019-01-03T13:21:00.072Z,6.63
2019-01-03T13:25:52.549Z,6.48
2019-01-03T13:30:43.051Z,6.44
2019-01-03T13:35:36.077Z,6.10
2019-01-03T13:40:29.655Z,5.93
2019-01-03T13:45:20.059Z,5.78
2019-01-03T13:50:11.360Z,5.71
2019-01-03T13:55:03.743Z,5.81
2019-01-03T13:59:55.303Z,5.35
2019-01-03T14:04:48.812Z,5.19
2019-01-03T14:09:38.514Z,4.89
2019-01-03T14:14:29.318Z,4.90
2019-01-03T14:19:19.631Z,4.59
2019-01-03T14:24:09.936Z,4.60
2019-01-03T14:29:01.554Z,4.66
2019-01-03T14:33:52.319Z,4.53
2019-01-03T14:38:42.901Z,4.37
2019-01-03T14:43:32.931Z,4.29
2019-01-03T14:48:23.494Z,4.22
2019-01-03T14:53:14.119Z,4.14
2019-01-03T14:58:04.898Z,3.95
2019-01-03T15:02:54.694Z,3.81
2019-01-03T15:07:45.496Z,3.82
2019-01-03T15:12:35.818Z,3.83
2019-01-03T15:17:26.109Z,3.91
2019-01-03T15:22:16.694Z,3.57
2019-01-03T15:27:43.238Z,3.67
2019-01-03T15:33:10.651Z,3.55
2019-01-03T15:38:52.916Z,3.42
2019-01-03T15:44:33.692Z,3.53
2019-01-03T15:49:58.466Z,3.41
2019-01-03T15:55:16.743Z,3.34
2019-01-03T16:00:38.999Z,3.20
2019-01-03T16:06:04.736Z,3.38
2019-01-03T16:11:27.638Z,3.17
2019-01-03T16:16:50.221Z,3.09
2019-01-03T16:21:45.349Z,3.21
2019-01-03T16:26:36.672Z,3.11
2019-01-03T16:31:29.288Z,3.00
2019-01-03T16:36:20.878Z,3.23
2019-01-03T16:41:12.466Z,3.07
2019-01-03T16:46:06.238Z,2.91
2019-01-03T16:50:59.928Z,3.08
2019-01-03T16:55:50.576Z,3.06
2019-01-03T17:00:41.693Z,3.14
2019-01-03T17:05:32.317Z,2.87
2019-01-03T17:10:25.089Z,2.87
2019-01-03T17:15:16.374Z,2.85
2019-01-03T17:20:07.723Z,2.81
2019-01-03T17:25:00.919Z,2.69
2019-01-03T17:29:51.663Z,2.82
2019-01-03T17:35:11.229Z,2.71
2019-01-03T17:40:34.969Z,2.79
2019-01-03T17:45:58.442Z,2.82
2019-01-03T17:51:19.215Z,2.66
2019-01-03T17:56:48.880Z,2.84
2019-01-03T18:02:14.118Z,2.69
2019-01-03T18:07:12.553Z,2.65
2019-01-03T18:12:03.003Z,2.48
2019-01-03T18:16:53.860Z,2.40
2019-01-03T18:21:45.423Z,2.53
2019-01-03T18:26:35.758Z,2.81
2019-01-03T18:31:26.291Z,2.61
2019-01-03T18:36:17.373Z,2.55
2019-01-03T18:41:37.058Z,2.37
2019-01-03T18:46:32.766Z,2.59
2019-01-03T18:51:22.914Z,2.29
2019-01-03T18:56:14.674Z,2.21
2019-01-03T19:01:04.764Z,2.32
2019-01-03T19:05:54.536Z,2.26
2019-01-03T19:10:46.157Z,2.23
2019-01-03T19:15:35.668Z,2.40
2019-01-03T19:20:33.056Z,2.24
2019-01-03T19:25:27.027Z,2.44
2019-01-03T19:30:19.931Z,2.20
2019-01-03T19:35:12.509Z,2.21
2019-01-03T19:40:04.948Z,2.19
2019-01-03T19:44:55.422Z,2.23
2019-01-03T19:49:45.736Z,2.16
2019-01-03T19:54:38.125Z,2.14
2019-01-03T19:59:27.916Z,2.06
2019-01-03T20:04:20.224Z,2.13
2019-01-03T20:09:11.342Z,1.87
2019-01-03T20:14:03.743Z,1.96
2019-01-03T20:18:54.260Z,2.08
2019-01-03T20:23:44.545Z,1.73
2019-01-03T20:28:35.130Z,1.63
2019-01-03T20:33:25.188Z,1.76
2019-01-03T20:38:20.664Z,1.72
2019-01-03T20:43:13.193Z,1.60
2019-01-03T20:48:27.822Z,1.65
2019-01-03T20:53:51.797Z,1.52
2019-01-03T20:58:50.555Z,1.49
2019-01-03T21:03:41.211Z,1.53
2019-01-03T21:08:32.075Z,1.39
2019-01-03T21:13:22.362Z,1.48
2019-01-03T21:18:14.489Z,1.47
2019-01-03T21:23:06.796Z,1.39
2019-01-03T21:27:58.485Z,1.36
2019-01-03T21:32:51.038Z,1.25
2019-01-03T21:37:41.577Z,1.13
2019-01-03T21:42:34.185Z,1.22
2019-01-03T21:47:25.851Z,1.21
2019-01-03T21:52:17.151Z,1.35
2019-01-03T21:57:07.704Z,1.20
2019-01-03T22:01:58.802Z,1.11
2019-01-03T22:06:49.907Z,0.90
2019-01-03T22:11:43.618Z,0.80
2019-01-03T22:16:36.877Z,0.81
2019-01-03T22:21:26.654Z,0.82
2019-01-03T22:26:16.448Z,0.85
2019-01-03T22:31:07.826Z,0.81
2019-01-03T22:35:58.577Z,0.82
2019-01-03T22:40:48.185Z,0.77
2019-01-03T22:45:38.705Z,0.80
2019-01-03T22:50:35.500Z,0.81
2019-01-03T22:55:27.997Z,0.87
2019-01-03T23:00:47.085Z,0.86
2019-01-03T23:05:43.876Z,0.80
2019-01-03T23:10:39.137Z,0.84
2019-01-03T23:15:28.965Z,0.45
2019-01-03T23:20:19.021Z,0.56
2019-01-03T23:25:09.545Z,0.16
2019-01-03T23:30:00.259Z,0.16
2019-01-03T23:34:51.414Z,0.43
2019-01-03T23:39:41.753Z,0.22
2019-01-03T23:44:31.783Z,0.38
2019-01-03T23:49:23.616Z,0.21
2019-01-03T23:54:13.933Z,-0.04
2019-01-03T23:59:12.531Z,-0.04
